Terminal Aerodrome Forecast
Issued by NWS

Home | Current Version | Previous Version | Text Only | Print | Product List | Glossary On
Versions: 1 2 3 4 5 6 7 8 9 10 11 12 13
943
FTUS45 KABQ 281739
TAFAEG
TAF
KAEG 281739Z 2818/2918 19019G29KT P6SM BKN110
      TEMPO 2821/2901 20023G35KT P6SM BKN090
     FM290200 28011KT P6SM VCSH OVC060
     FM291700 27012G22KT P6SM VCSH BKN060=

USA.gov is the U.S. government's official web portal to all federal, state and local government web resources and services.